createdAt,value
2018-05-13T00:00:46.160Z,68.83
2018-05-13T00:03:13.899Z,68.84
2018-05-13T00:05:41.871Z,68.92
2018-05-13T00:08:09.421Z,68.80
2018-05-13T00:10:36.933Z,68.79
2018-05-13T00:13:04.512Z,68.81
2018-05-13T00:15:32.181Z,68.90
2018-05-13T00:17:59.805Z,69.03
2018-05-13T00:20:27.470Z,69.06
2018-05-13T00:22:55.101Z,69.08
2018-05-13T00:25:22.721Z,69.01
2018-05-13T00:27:50.383Z,69.39
2018-05-13T00:30:17.988Z,69.53
2018-05-13T00:32:45.529Z,69.52
2018-05-13T00:35:13.072Z,69.43
2018-05-13T00:37:40.613Z,69.23
2018-05-13T00:40:08.218Z,69.52
2018-05-13T00:42:35.874Z,69.58
2018-05-13T00:45:03.582Z,69.63
2018-05-13T00:47:31.356Z,69.39
2018-05-13T00:49:58.993Z,69.61
2018-05-13T00:52:26.624Z,69.60
2018-05-13T00:54:58.997Z,69.84
2018-05-13T00:57:26.545Z,69.92
2018-05-13T00:59:54.163Z,69.88
2018-05-13T01:02:21.853Z,69.63
2018-05-13T01:04:49.508Z,70.21
2018-05-13T01:07:17.064Z,69.98
2018-05-13T01:09:44.584Z,70.01
2018-05-13T01:12:12.280Z,70.03
2018-05-13T01:14:39.970Z,69.90
2018-05-13T01:17:07.592Z,70.46
2018-05-13T01:19:35.205Z,70.40
2018-05-13T01:22:02.868Z,70.69
2018-05-13T01:24:30.393Z,70.65
2018-05-13T01:26:57.925Z,70.55
2018-05-13T01:29:25.488Z,70.60
2018-05-13T01:31:53.042Z,70.52
2018-05-13T01:34:20.561Z,70.93
2018-05-13T01:36:48.153Z,71.25
2018-05-13T01:39:15.656Z,71.55
2018-05-13T01:41:43.232Z,71.55
2018-05-13T01:46:44.422Z,71.29
2018-05-13T01:49:11.974Z,71.36
2018-05-13T01:51:39.505Z,70.95
2018-05-13T01:54:07.128Z,70.63
2018-05-13T01:56:34.828Z,71.38
2018-05-13T01:59:02.385Z,71.78
2018-05-13T02:01:30.119Z,72.01
2018-05-13T02:03:57.764Z,71.93
2018-05-13T02:06:25.304Z,71.81
2018-05-13T02:08:52.806Z,71.75
2018-05-13T02:11:20.688Z,71.80
2018-05-13T02:13:48.427Z,71.31
2018-05-13T02:16:16.239Z,71.86
2018-05-13T02:18:43.766Z,72.02
2018-05-13T02:21:11.298Z,71.78
2018-05-13T02:23:38.848Z,72.09
2018-05-13T02:26:06.404Z,72.40
2018-05-13T02:28:34.080Z,72.58
2018-05-13T02:31:01.787Z,72.63
2018-05-13T02:33:29.386Z,72.55
2018-05-13T02:35:57.023Z,72.38
2018-05-13T02:38:24.776Z,72.48
2018-05-13T02:40:52.406Z,72.41
2018-05-13T02:43:20.159Z,72.64
2018-05-13T02:45:47.757Z,72.43
2018-05-13T02:48:15.269Z,72.79
2018-05-13T02:50:42.817Z,72.62
2018-05-13T02:53:10.549Z,72.78
2018-05-13T02:55:38.109Z,72.82
2018-05-13T02:58:05.659Z,72.42
2018-05-13T03:00:33.209Z,72.79
2018-05-13T03:03:00.720Z,72.88
2018-05-13T03:05:28.378Z,73.16
2018-05-13T03:07:55.975Z,73.00
2018-05-13T03:10:23.609Z,73.25
2018-05-13T03:12:51.195Z,73.23
2018-05-13T03:15:18.909Z,72.99
2018-05-13T03:17:47.018Z,72.95
2018-05-13T03:20:14.609Z,73.44
2018-05-13T03:22:42.143Z,73.45
2018-05-13T03:25:10.924Z,73.32
2018-05-13T03:27:38.441Z,73.44
2018-05-13T03:30:05.970Z,73.24
2018-05-13T03:32:33.498Z,73.14
2018-05-13T03:35:01.021Z,73.12
2018-05-13T03:37:28.635Z,72.86
2018-05-13T03:39:56.252Z,72.84
2018-05-13T03:42:24.192Z,72.68
2018-05-13T03:44:52.176Z,72.64
2018-05-13T03:47:20.292Z,72.54
2018-05-13T03:49:47.937Z,72.61
2018-05-13T03:52:15.525Z,72.93
2018-05-13T03:54:43.149Z,72.76
2018-05-13T03:57:11.838Z,72.97
2018-05-13T03:59:39.378Z,73.16
2018-05-13T04:04:40.846Z,73.29
2018-05-13T04:07:08.465Z,73.38
2018-05-13T04:09:47.624Z,73.50
2018-05-13T04:12:26.929Z,73.50
2018-05-13T04:15:06.072Z,73.58
2018-05-13T04:17:33.666Z,73.70
2018-05-13T04:20:01.244Z,73.66
2018-05-13T04:22:28.757Z,73.73
2018-05-13T04:24:56.277Z,73.84
2018-05-13T04:27:23.796Z,73.95
2018-05-13T04:29:51.336Z,73.77
2018-05-13T04:32:18.930Z,73.48
2018-05-13T04:34:46.509Z,73.14
2018-05-13T04:37:14.148Z,73.16
2018-05-13T04:39:41.826Z,73.16
2018-05-13T04:42:09.444Z,73.07
2018-05-13T04:44:37.145Z,72.81
2018-05-13T04:47:04.761Z,72.89
2018-05-13T04:49:32.412Z,72.76
2018-05-13T04:52:00.052Z,72.47
2018-05-13T04:54:27.738Z,72.14
2018-05-13T04:56:55.391Z,72.07
2018-05-13T04:59:22.913Z,71.80
2018-05-13T05:01:50.532Z,72.00
2018-05-13T05:04:18.127Z,71.97
2018-05-13T05:06:45.769Z,72.06
2018-05-13T05:09:13.446Z,71.88
2018-05-13T05:11:41.054Z,71.39
2018-05-13T05:14:08.624Z,71.23
2018-05-13T05:16:36.161Z,71.12
2018-05-13T05:19:03.748Z,71.04
2018-05-13T05:21:31.291Z,70.85
2018-05-13T05:23:58.849Z,70.73
2018-05-13T05:26:26.429Z,70.78
2018-05-13T05:28:53.959Z,70.65
2018-05-13T05:31:21.485Z,70.43
2018-05-13T05:33:49.008Z,70.15
2018-05-13T05:36:16.647Z,69.97
2018-05-13T05:38:44.307Z,69.77
2018-05-13T05:41:11.894Z,69.54
2018-05-13T05:43:39.461Z,69.32
2018-05-13T05:46:07.048Z,69.02
2018-05-13T05:48:34.678Z,68.63
2018-05-13T05:51:02.201Z,68.72
2018-05-13T05:53:29.703Z,68.44
2018-05-13T05:55:57.230Z,68.10
2018-05-13T05:58:24.859Z,68.21
2018-05-13T06:00:52.401Z,69.55
2018-05-13T06:03:20.021Z,69.43
2018-05-13T06:05:47.580Z,70.08
2018-05-13T06:08:15.154Z,70.18
2018-05-13T06:10:42.713Z,69.29
2018-05-13T06:13:10.620Z,70.13
2018-05-13T06:15:38.225Z,69.69
2018-05-13T06:18:05.809Z,68.78
2018-05-13T06:20:33.459Z,67.68
2018-05-13T06:23:01.001Z,67.61
2018-05-13T06:25:28.692Z,67.11
2018-05-13T06:27:57.232Z,66.02
2018-05-13T06:30:24.773Z,65.50
2018-05-13T06:32:52.295Z,64.69
2018-05-13T06:35:19.922Z,64.09
2018-05-13T06:37:48.117Z,63.00
2018-05-13T06:40:15.679Z,62.74
2018-05-13T06:42:43.221Z,62.29
2018-05-13T06:45:10.837Z,62.03
2018-05-13T06:47:38.595Z,62.20
2018-05-13T06:50:06.132Z,61.10
2018-05-13T06:52:33.685Z,60.44
2018-05-13T06:55:01.233Z,60.26
2018-05-13T06:57:28.850Z,60.39
2018-05-13T06:59:56.413Z,60.21
2018-05-13T07:02:24.049Z,59.94
2018-05-13T07:04:51.583Z,59.95
2018-05-13T07:07:19.228Z,59.10
2018-05-13T07:09:46.796Z,58.98
2018-05-13T07:12:14.465Z,58.55
2018-05-13T07:14:42.109Z,58.33
2018-05-13T07:17:10.104Z,57.68
2018-05-13T07:19:37.789Z,57.36
2018-05-13T07:22:05.317Z,56.80
2018-05-13T07:24:32.879Z,56.69
2018-05-13T07:27:00.437Z,56.41
2018-05-13T07:32:06.253Z,55.89
2018-05-13T07:34:33.794Z,56.07
2018-05-13T07:37:01.371Z,56.25
2018-05-13T07:39:29.013Z,55.47
2018-05-13T07:41:56.564Z,55.35
2018-05-13T07:44:24.109Z,54.46
2018-05-13T07:46:51.623Z,54.24
2018-05-13T07:49:19.204Z,54.50
2018-05-13T07:51:46.905Z,54.06
2018-05-13T07:54:14.560Z,53.22
2018-05-13T07:56:42.124Z,54.04
2018-05-13T07:59:10.599Z,54.52
2018-05-13T08:01:38.221Z,53.34
2018-05-13T08:04:05.919Z,52.80
2018-05-13T08:06:33.666Z,52.75
2018-05-13T08:09:02.363Z,51.40
2018-05-13T08:11:32.960Z,51.01
2018-05-13T08:14:00.488Z,51.48
2018-05-13T08:16:28.038Z,51.25
2018-05-13T08:18:55.992Z,50.55
2018-05-13T08:23:57.260Z,50.14
2018-05-13T08:26:24.806Z,50.23
2018-05-13T08:28:52.468Z,49.90
2018-05-13T08:31:20.935Z,50.58
2018-05-13T08:33:48.451Z,50.09
2018-05-13T08:36:15.989Z,50.03
2018-05-13T08:38:43.578Z,48.65
2018-05-13T08:41:11.480Z,49.12
2018-05-13T08:43:39.179Z,48.80
2018-05-13T08:46:06.779Z,47.96
2018-05-13T08:48:35.529Z,47.52
2018-05-13T08:51:04.210Z,47.71
2018-05-13T08:53:31.789Z,47.82
2018-05-13T08:55:59.356Z,47.46
2018-05-13T08:58:28.068Z,49.28
2018-05-13T09:00:56.915Z,49.21
2018-05-13T09:03:24.969Z,47.90
2018-05-13T09:05:52.623Z,46.96
2018-05-13T09:08:20.308Z,47.39
2018-05-13T09:10:48.562Z,48.02
2018-05-13T09:13:18.935Z,47.89
2018-05-13T09:15:50.238Z,46.62
2018-05-13T09:18:17.924Z,46.88
2018-05-13T09:20:49.436Z,47.39
2018-05-13T09:23:16.946Z,46.63
2018-05-13T09:25:45.474Z,45.78
2018-05-13T09:28:13.006Z,45.16
2018-05-13T09:30:40.700Z,45.62
2018-05-13T09:33:08.460Z,47.38
2018-05-13T09:35:36.652Z,47.97
2018-05-13T09:38:05.307Z,48.27
2018-05-13T09:40:33.557Z,47.11
2018-05-13T09:43:02.021Z,46.79
2018-05-13T09:45:29.715Z,47.13
2018-05-13T09:47:57.357Z,47.26
2018-05-13T09:50:27.536Z,45.90
2018-05-13T09:52:55.824Z,45.74
2018-05-13T09:55:25.484Z,46.12
2018-05-13T09:57:53.151Z,45.85
2018-05-13T10:00:22.754Z,46.25
2018-05-13T10:02:53.849Z,45.61
2018-05-13T10:05:22.442Z,44.81
2018-05-13T10:07:50.124Z,45.01
2018-05-13T10:10:23.987Z,45.10
2018-05-13T10:15:35.951Z,42.51
2018-05-13T10:18:03.508Z,43.06
2018-05-13T10:20:34.625Z,42.61
2018-05-13T10:23:07.055Z,41.58
2018-05-13T10:25:36.004Z,42.00
2018-05-13T10:28:04.823Z,42.82
2018-05-13T10:30:36.432Z,43.40
2018-05-13T10:33:10.354Z,42.80
2018-05-13T10:35:47.994Z,42.63
2018-05-13T10:38:19.904Z,42.66
2018-05-13T10:40:49.039Z,42.94
2018-05-13T10:43:17.640Z,42.68
2018-05-13T10:45:47.695Z,42.45
2018-05-13T10:48:15.619Z,42.20
2018-05-13T10:50:44.318Z,42.85
2018-05-13T10:53:13.065Z,43.06
2018-05-13T10:55:43.619Z,42.76
2018-05-13T10:58:12.914Z,42.16
2018-05-13T11:00:41.165Z,43.45
2018-05-13T11:03:09.378Z,42.86
2018-05-13T11:05:37.718Z,42.40
2018-05-13T11:08:05.461Z,41.47
2018-05-13T11:10:33.452Z,41.90
2018-05-13T11:13:02.641Z,41.81
2018-05-13T11:15:32.466Z,42.50
2018-05-13T11:18:00.269Z,41.70
2018-05-13T11:20:29.021Z,41.41
2018-05-13T11:22:57.690Z,41.14
2018-05-13T11:25:29.602Z,41.41
2018-05-13T11:28:03.829Z,41.45
2018-05-13T11:30:35.019Z,41.30
2018-05-13T11:33:06.257Z,41.29
2018-05-13T11:35:42.836Z,42.87
2018-05-13T11:38:12.131Z,42.58
2018-05-13T11:40:43.829Z,42.55
2018-05-13T11:43:16.196Z,43.10
2018-05-13T11:45:45.067Z,42.60
2018-05-13T11:48:13.512Z,42.93
2018-05-13T11:50:41.186Z,42.71
2018-05-13T11:53:10.569Z,42.76
2018-05-13T11:55:39.164Z,43.37
2018-05-13T12:00:45.241Z,42.61
2018-05-13T12:03:12.913Z,42.66
2018-05-13T12:05:42.223Z,42.35
2018-05-13T12:08:10.292Z,42.01
2018-05-13T12:10:39.367Z,41.85
2018-05-13T12:13:07.384Z,42.28
2018-05-13T12:15:35.141Z,42.61
2018-05-13T12:18:02.673Z,42.89
2018-05-13T12:20:32.737Z,41.84
2018-05-13T12:23:00.979Z,42.08
2018-05-13T12:25:29.630Z,42.01
2018-05-13T12:27:57.709Z,42.49
2018-05-13T12:30:26.973Z,41.97
2018-05-13T12:32:56.051Z,42.59
2018-05-13T12:35:32.021Z,42.12
2018-05-13T12:38:00.824Z,41.47
2018-05-13T12:43:02.125Z,40.96
2018-05-13T12:45:29.765Z,41.10
2018-05-13T12:47:58.172Z,40.70
2018-05-13T12:50:25.831Z,41.27
2018-05-13T12:52:53.446Z,41.72
2018-05-13T12:55:26.820Z,41.39
2018-05-13T12:57:57.733Z,41.58
2018-05-13T13:00:33.659Z,41.09
2018-05-13T13:03:02.394Z,40.71
2018-05-13T13:05:33.501Z,39.80
2018-05-13T13:08:02.089Z,40.48
2018-05-13T13:10:29.703Z,40.67
2018-05-13T13:12:57.338Z,41.58
2018-05-13T13:15:27.208Z,41.32
2018-05-13T13:17:56.194Z,40.61
2018-05-13T13:20:23.782Z,40.81
2018-05-13T13:22:55.442Z,40.86
2018-05-13T13:25:23.268Z,40.91
2018-05-13T13:27:50.873Z,41.16
2018-05-13T13:30:19.431Z,40.30
2018-05-13T13:32:47.145Z,40.40
2018-05-13T13:35:18.849Z,39.46
2018-05-13T13:40:40.863Z,42.23
2018-05-13T13:43:09.540Z,42.13
2018-05-13T13:45:38.687Z,41.11
2018-05-13T13:48:19.952Z,40.42
2018-05-13T13:50:53.666Z,40.73
2018-05-13T13:53:23.817Z,40.95
2018-05-13T13:55:54.457Z,41.59
2018-05-13T13:58:25.553Z,41.62
2018-05-13T14:00:53.171Z,40.98
2018-05-13T14:03:24.557Z,40.42
2018-05-13T14:05:55.983Z,39.91
2018-05-13T14:08:29.482Z,39.88
2018-05-13T14:10:59.113Z,40.32
2018-05-13T14:13:28.857Z,40.15
2018-05-13T14:16:01.393Z,40.55
2018-05-13T14:18:29.915Z,39.69
2018-05-13T14:20:59.893Z,39.60
2018-05-13T14:23:31.651Z,40.67
2018-05-13T14:26:00.740Z,41.18
2018-05-13T14:28:29.830Z,40.78
2018-05-13T14:31:02.043Z,41.38
2018-05-13T14:36:04.428Z,40.71
2018-05-13T14:38:32.864Z,40.61
2018-05-13T14:41:00.827Z,40.82
2018-05-13T14:43:30.839Z,40.58
2018-05-13T14:46:01.301Z,40.28
2018-05-13T14:48:30.259Z,40.37
2018-05-13T14:50:57.779Z,42.14
2018-05-13T14:53:25.323Z,42.03
2018-05-13T14:55:55.003Z,41.50
2018-05-13T14:58:22.795Z,41.16
2018-05-13T15:00:51.798Z,40.73
2018-05-13T15:03:24.024Z,40.45
2018-05-13T15:05:52.523Z,39.79
2018-05-13T15:08:21.000Z,39.83
2018-05-13T15:10:48.585Z,39.57
2018-05-13T15:13:18.849Z,39.67
2018-05-13T15:15:46.932Z,39.79
2018-05-13T15:18:15.105Z,39.88
2018-05-13T15:20:42.692Z,40.17
2018-05-13T15:23:10.434Z,40.06
2018-05-13T15:25:38.051Z,40.14
2018-05-13T15:28:06.798Z,40.22
2018-05-13T15:30:34.449Z,40.48
2018-05-13T15:33:02.149Z,40.45
2018-05-13T15:35:29.680Z,39.94
2018-05-13T15:37:58.250Z,40.34
2018-05-13T15:40:26.681Z,40.54
2018-05-13T15:42:54.338Z,40.67
2018-05-13T15:45:25.740Z,40.72
2018-05-13T15:47:53.821Z,40.35
2018-05-13T15:50:23.376Z,40.00
2018-05-13T15:52:51.065Z,39.62
2018-05-13T15:55:18.838Z,40.31
2018-05-13T15:57:46.394Z,40.20
2018-05-13T16:00:14.100Z,39.69
2018-05-13T16:02:41.777Z,39.59
2018-05-13T16:05:09.410Z,39.82
2018-05-13T16:07:37.072Z,39.63
2018-05-13T16:10:04.719Z,39.80
2018-05-13T16:12:33.871Z,39.67
2018-05-13T16:15:01.718Z,39.39
2018-05-13T16:17:37.184Z,39.30
2018-05-13T16:20:08.358Z,39.48
2018-05-13T16:22:37.588Z,39.52
2018-05-13T16:25:05.631Z,39.66
2018-05-13T16:27:36.023Z,39.66
2018-05-13T16:30:05.565Z,39.96
2018-05-13T16:32:38.584Z,39.74
2018-05-13T16:35:08.771Z,39.84
2018-05-13T16:37:37.200Z,39.96
2018-05-13T16:40:08.831Z,40.64
2018-05-13T16:42:36.491Z,40.71
2018-05-13T16:45:04.975Z,40.81
2018-05-13T16:47:32.713Z,40.82
2018-05-13T16:50:03.770Z,40.94
2018-05-13T16:52:32.514Z,40.95
2018-05-13T16:55:01.287Z,41.06
2018-05-13T16:57:29.812Z,41.13
2018-05-13T17:00:00.228Z,41.42
2018-05-13T17:02:30.171Z,41.53
2018-05-13T17:04:58.874Z,41.76
2018-05-13T17:07:26.519Z,42.00
2018-05-13T17:09:54.131Z,42.07
2018-05-13T17:14:58.837Z,42.42
2018-05-13T17:17:29.351Z,42.89
2018-05-13T17:19:56.944Z,43.21
2018-05-13T17:22:28.057Z,43.91
2018-05-13T17:24:55.766Z,44.23
2018-05-13T17:27:29.135Z,44.08
2018-05-13T17:29:56.762Z,44.47
2018-05-13T17:32:24.228Z,44.24
2018-05-13T17:34:51.719Z,44.51
2018-05-13T17:37:22.154Z,44.63
2018-05-13T17:39:49.810Z,45.13
2018-05-13T17:42:18.363Z,45.32
2018-05-13T17:44:46.005Z,45.70
2018-05-13T17:47:14.904Z,45.79
2018-05-13T17:49:43.259Z,45.63
2018-05-13T17:52:10.811Z,45.75
2018-05-13T17:54:38.399Z,46.01
2018-05-13T17:57:05.970Z,46.02
2018-05-13T17:59:33.724Z,46.05
2018-05-13T18:02:02.311Z,46.67
2018-05-13T18:04:30.001Z,46.56
2018-05-13T18:06:57.681Z,46.54
2018-05-13T18:09:25.397Z,46.65
2018-05-13T18:11:52.977Z,46.74
2018-05-13T18:14:20.957Z,46.66
2018-05-13T18:16:49.044Z,46.93
2018-05-13T18:19:18.239Z,47.27
2018-05-13T18:21:45.888Z,47.41
2018-05-13T18:24:15.369Z,47.49
2018-05-13T18:26:42.901Z,47.96
2018-05-13T18:29:12.736Z,48.01
2018-05-13T18:31:41.611Z,47.87
2018-05-13T18:34:09.733Z,47.74
2018-05-13T18:36:38.377Z,47.40
2018-05-13T18:39:06.112Z,47.73
2018-05-13T18:41:33.795Z,47.63
2018-05-13T18:44:01.430Z,47.85
2018-05-13T18:46:29.075Z,47.87
2018-05-13T18:48:56.776Z,48.07
2018-05-13T18:51:25.182Z,47.97
2018-05-13T18:53:52.904Z,47.72
2018-05-13T18:56:20.713Z,47.50
2018-05-13T18:58:48.412Z,47.67
2018-05-13T19:01:16.685Z,47.72
2018-05-13T19:03:44.460Z,47.61
2018-05-13T19:06:13.162Z,47.55
2018-05-13T19:08:40.817Z,47.05
2018-05-13T19:11:11.038Z,47.36
2018-05-13T19:13:40.429Z,46.75
2018-05-13T19:16:08.080Z,46.90
2018-05-13T19:18:35.727Z,46.95
2018-05-13T19:21:03.324Z,47.10
2018-05-13T19:23:32.212Z,46.76
2018-05-13T19:25:59.899Z,46.82
2018-05-13T19:28:27.516Z,46.73
2018-05-13T19:30:55.277Z,46.61
2018-05-13T19:33:24.116Z,47.26
2018-05-13T19:35:52.332Z,46.99
2018-05-13T19:38:20.123Z,46.72
2018-05-13T19:40:47.878Z,46.58
2018-05-13T19:43:15.559Z,46.61
2018-05-13T19:45:43.136Z,46.70
2018-05-13T19:48:10.667Z,46.39
2018-05-13T19:50:38.271Z,46.29
2018-05-13T19:53:05.855Z,46.29
2018-05-13T19:55:33.462Z,46.41
2018-05-13T19:58:01.713Z,46.47
2018-05-13T20:00:29.259Z,46.54
2018-05-13T20:02:57.127Z,46.57
2018-05-13T20:05:24.763Z,46.70
2018-05-13T20:07:52.340Z,46.97
2018-05-13T20:10:19.859Z,47.24
2018-05-13T20:12:48.203Z,47.38
2018-05-13T20:15:17.508Z,47.90
2018-05-13T20:17:45.430Z,48.17
2018-05-13T20:20:13.108Z,48.20
2018-05-13T20:22:48.700Z,48.19
2018-05-13T20:25:16.799Z,48.65
2018-05-13T20:27:44.921Z,48.66
2018-05-13T20:30:12.523Z,48.87
2018-05-13T20:32:40.250Z,48.58
2018-05-13T20:35:07.857Z,48.75
2018-05-13T20:37:35.596Z,48.89
2018-05-13T20:40:03.251Z,48.97
2018-05-13T20:42:30.881Z,49.05
2018-05-13T20:44:59.436Z,49.13
2018-05-13T20:47:28.013Z,49.18
2018-05-13T20:49:55.607Z,49.12
2018-05-13T20:52:23.250Z,49.30
2018-05-13T20:54:50.841Z,49.39
2018-05-13T20:57:18.374Z,49.44
2018-05-13T20:59:45.933Z,49.55
2018-05-13T21:02:13.780Z,49.55
2018-05-13T21:04:41.327Z,49.59
2018-05-13T21:07:08.982Z,49.52
2018-05-13T21:09:36.571Z,49.48
2018-05-13T21:12:04.161Z,49.51
2018-05-13T21:14:31.803Z,49.57
2018-05-13T21:16:59.409Z,49.74
2018-05-13T21:19:27.009Z,49.66
2018-05-13T21:21:54.634Z,49.65
2018-05-13T21:24:22.270Z,49.70
2018-05-13T21:26:49.830Z,49.58
2018-05-13T21:29:18.806Z,49.65
2018-05-13T21:31:46.355Z,50.13
2018-05-13T21:34:13.862Z,49.90
2018-05-13T21:36:41.389Z,49.77
2018-05-13T21:39:08.943Z,49.80
2018-05-13T21:41:36.539Z,49.81
2018-05-13T21:44:04.104Z,49.89
2018-05-13T21:46:31.638Z,49.60
2018-05-13T21:48:59.159Z,49.41
2018-05-13T21:51:26.762Z,49.58
2018-05-13T21:53:54.440Z,49.53
2018-05-13T21:56:22.052Z,49.34
2018-05-13T21:58:50.013Z,49.34
2018-05-13T22:01:17.603Z,49.39
2018-05-13T22:03:45.208Z,49.49
2018-05-13T22:06:12.901Z,49.38
2018-05-13T22:08:40.560Z,49.43
2018-05-13T22:11:08.096Z,49.64
2018-05-13T22:13:35.779Z,49.75
2018-05-13T22:16:03.296Z,49.69
2018-05-13T22:18:30.839Z,49.89
2018-05-13T22:20:58.366Z,50.11
2018-05-13T22:23:25.852Z,50.36
2018-05-13T22:25:53.377Z,50.46
2018-05-13T22:28:20.964Z,50.53
2018-05-13T22:30:48.495Z,50.71
2018-05-13T22:33:16.035Z,51.19
2018-05-13T22:35:43.654Z,51.22
2018-05-13T22:38:11.241Z,51.11
2018-05-13T22:40:38.943Z,51.39
2018-05-13T22:43:06.809Z,51.37
2018-05-13T22:45:34.405Z,51.35
2018-05-13T22:48:01.993Z,51.69
2018-05-13T22:50:29.588Z,51.90
2018-05-13T22:52:57.127Z,51.82
2018-05-13T22:55:24.664Z,51.91
2018-05-13T22:57:52.373Z,52.34
2018-05-13T23:00:19.959Z,52.63
2018-05-13T23:02:47.544Z,53.05
2018-05-13T23:05:15.215Z,53.23
2018-05-13T23:07:42.768Z,53.46
2018-05-13T23:10:10.326Z,53.77
2018-05-13T23:12:37.919Z,54.24
2018-05-13T23:15:05.516Z,54.66
2018-05-13T23:17:33.112Z,54.63
2018-05-13T23:20:00.706Z,54.79
2018-05-13T23:22:35.104Z,54.92
2018-05-13T23:25:02.803Z,55.17
2018-05-13T23:27:30.437Z,55.43
2018-05-13T23:29:57.982Z,55.57
2018-05-13T23:32:25.515Z,56.01
2018-05-13T23:34:53.138Z,56.29
2018-05-13T23:39:54.607Z,56.36
2018-05-13T23:42:22.225Z,56.41
2018-05-13T23:44:49.795Z,56.69
2018-05-13T23:47:17.366Z,56.60
2018-05-13T23:49:44.953Z,56.94
2018-05-13T23:52:12.544Z,57.09
2018-05-13T23:54:40.146Z,57.05
2018-05-13T23:57:07.779Z,57.00
2018-05-13T23:59:35.312Z,56.87
